createdAt,value
2018-09-13T00:03:02.246Z,20.60
2018-09-13T00:13:05.529Z,20.70
2018-09-13T00:23:09.165Z,20.60
2018-09-13T00:33:12.384Z,20.40
2018-09-13T00:43:15.634Z,20.30
2018-09-13T00:53:18.849Z,20.20
2018-09-13T01:03:22.206Z,20.10
2018-09-13T01:13:25.473Z,19.90
2018-09-13T01:23:28.696Z,19.90
2018-09-13T01:33:31.939Z,19.70
2018-09-13T01:43:35.172Z,19.60
2018-09-13T01:53:38.544Z,19.40
2018-09-13T02:03:41.778Z,19.50
2018-09-13T02:13:45.021Z,19.40
2018-09-13T02:23:48.271Z,19.10
2018-09-13T02:33:51.513Z,19.10
2018-09-13T02:43:54.749Z,19.10
2018-09-13T02:53:58.895Z,19.00
2018-09-13T03:04:02.140Z,19.00
2018-09-13T03:14:05.521Z,18.90
2018-09-13T03:24:08.814Z,18.70
2018-09-13T03:34:12.173Z,18.60
2018-09-13T03:44:15.596Z,18.60
2018-09-13T03:54:18.837Z,18.60
2018-09-13T04:04:22.065Z,18.50
2018-09-13T04:14:25.309Z,18.30
2018-09-13T04:24:28.536Z,18.30
2018-09-13T04:34:31.777Z,18.30
2018-09-13T04:44:34.984Z,18.30
2018-09-13T04:54:38.224Z,18.30
2018-09-13T05:04:41.446Z,18.20
2018-09-13T05:14:44.807Z,18.20
2018-09-13T05:24:48.057Z,18.30
2018-09-13T05:34:51.317Z,18.40
2018-09-13T05:44:54.567Z,18.30
2018-09-13T05:54:57.866Z,18.20
2018-09-13T06:05:01.116Z,18.30
2018-09-13T06:15:04.430Z,18.40
2018-09-13T06:25:07.809Z,18.30
2018-09-13T06:35:11.068Z,18.50
2018-09-13T06:45:14.392Z,18.50
2018-09-13T06:55:17.689Z,18.70
2018-09-13T07:05:20.935Z,18.60
2018-09-13T07:15:24.393Z,18.70
2018-09-13T07:25:27.821Z,18.70
2018-09-13T07:35:31.930Z,19.10
2018-09-13T07:45:35.298Z,19.20
2018-09-13T07:55:39.662Z,19.40
2018-09-13T08:05:42.869Z,19.50
2018-09-13T08:15:46.288Z,19.70
2018-09-13T08:25:49.568Z,19.60
2018-09-13T08:35:52.940Z,19.70
2018-09-13T08:45:56.340Z,20.00
2018-09-13T08:55:59.624Z,20.30
2018-09-13T09:06:03.012Z,20.50
2018-09-13T09:16:06.316Z,20.40
2018-09-13T09:26:09.632Z,20.70
2018-09-13T09:36:13.000Z,20.60
2018-09-13T09:46:16.353Z,20.80
2018-09-13T09:56:19.694Z,20.70
2018-09-13T10:06:23.012Z,21.00
2018-09-13T10:16:31.796Z,21.00
2018-09-13T10:26:40.600Z,21.10
2018-09-13T10:36:49.453Z,21.20
2018-09-13T10:46:58.272Z,21.30
2018-09-13T10:57:17.696Z,21.50
2018-09-13T11:07:21.216Z,21.60
2018-09-13T11:17:25.276Z,21.90
2018-09-13T11:27:28.780Z,22.00
2018-09-13T11:37:32.148Z,22.40
2018-09-13T11:47:35.531Z,22.60
2018-09-13T11:57:38.851Z,22.80
2018-09-13T12:07:42.173Z,22.90
2018-09-13T12:17:45.505Z,22.80
2018-09-13T12:27:48.863Z,22.90
2018-09-13T12:37:52.364Z,22.80
2018-09-13T12:47:55.870Z,23.10
2018-09-13T12:57:59.178Z,23.00
2018-09-13T13:08:02.449Z,22.90
2018-09-13T13:18:05.892Z,23.00
2018-09-13T13:28:09.137Z,22.90
2018-09-13T13:38:12.504Z,23.10
2018-09-13T13:48:15.837Z,23.10
2018-09-13T13:58:19.221Z,23.30
2018-09-13T14:08:22.638Z,23.30
2018-09-13T14:18:25.956Z,23.10
2018-09-13T14:28:29.312Z,23.10
2018-09-13T14:38:32.963Z,23.10
2018-09-13T14:48:36.268Z,23.00
2018-09-13T14:58:39.642Z,23.00
2018-09-13T15:08:42.988Z,22.90
2018-09-13T15:18:46.336Z,22.70
2018-09-13T15:28:49.691Z,22.70
2018-09-13T15:38:53.210Z,22.60
2018-09-13T15:48:56.652Z,22.60
2018-09-13T15:59:00.369Z,22.40
2018-09-13T16:09:04.468Z,22.40
2018-09-13T16:19:08.312Z,22.30
2018-09-13T16:29:11.585Z,22.10
2018-09-13T16:39:24.997Z,22.00
2018-09-13T16:49:28.424Z,21.90
2018-09-13T16:59:32.861Z,21.70
2018-09-13T17:09:36.137Z,21.60
2018-09-13T17:19:39.686Z,21.50
2018-09-13T17:29:43.039Z,21.50
2018-09-13T17:39:46.385Z,21.40
2018-09-13T17:49:49.665Z,21.30
2018-09-13T17:59:53.152Z,20.90
2018-09-13T18:09:56.713Z,20.60
2018-09-13T18:20:00.048Z,20.50
2018-09-13T18:30:03.390Z,20.40
2018-09-13T18:40:06.794Z,20.30
2018-09-13T18:50:10.113Z,20.50
2018-09-13T19:00:13.820Z,20.30
2018-09-13T19:10:17.393Z,20.20
2018-09-13T19:20:21.699Z,20.10
2018-09-13T19:30:25.054Z,20.10
2018-09-13T19:40:28.394Z,19.90
2018-09-13T19:50:33.371Z,19.80
2018-09-13T20:00:36.644Z,19.70
2018-09-13T20:10:39.891Z,19.70
2018-09-13T20:20:43.296Z,19.60
2018-09-13T20:30:46.673Z,19.60
2018-09-13T20:40:50.252Z,19.60
2018-09-13T20:50:59.932Z,19.50
2018-09-13T21:01:04.003Z,19.30
2018-09-13T21:11:07.568Z,19.30
2018-09-13T21:21:10.996Z,19.40
2018-09-13T21:31:14.326Z,19.40
2018-09-13T21:41:17.723Z,19.30
2018-09-13T21:51:21.012Z,19.20
2018-09-13T22:01:24.392Z,19.20
2018-09-13T22:11:28.132Z,19.20
2018-09-13T22:21:31.558Z,19.00
2018-09-13T22:31:35.592Z,19.00
2018-09-13T22:41:39.211Z,19.10
2018-09-13T22:51:42.428Z,19.00
2018-09-13T23:01:45.684Z,19.00
2018-09-13T23:11:49.615Z,18.90
2018-09-13T23:21:52.868Z,18.80
2018-09-13T23:31:56.080Z,18.90
2018-09-13T23:41:59.300Z,18.70
2018-09-13T23:52:02.517Z,18.80
